Historyczne dane pomiarowe

Dodano dane terminowe – wersja testowa.

Dane z okresu 1951-2019

Wersja bazy: 1.34 [2019-03-16, lista zmian], aktualizacja planowana na 2019-04-15

Dane meteo z obszaru Polski uzyskane na podstawie danych udostępnionych przez Instytut Meteorologii i Gospodarki Wodnej – Państwowy Instytut Badawczy.

 

Wybierz Datę:    

       

TemperaturaWilgotnośćZachmurzenieWiatrCiśnienieWidzialnośćZjawiska
 Data    tng td wb rh cc ccl cl cm ch dir g1 g2 mslp ppp      
1999-07-11 00:00:00 18.7--- 15.2 16.580wxwxwx3wx--1018.9 994.7 0.0---wxw1
1999-07-11 01:00:00 18.0--- 15.1 16.283wxwxwx3wx--1018.3 994.0----wx
1999-07-11 02:00:00 17.8--- 14.9 16.083wxwxwxwx3wx--1018.2 993.9----wx
1999-07-11 03:00:00 17.2--- 14.1 15.382wxwxwxwx2wx--1018.0 993.7----wx
1999-07-11 04:00:00 17.0--- 13.5 14.980wxwxwxwxwx2wx--1018.6 994.2----wx
1999-07-11 05:00:00 18.1--- 14.2 15.778wxwxwxwx2wx--1018.1 993.8----wx
1999-07-11 06:00:00 19.6--- 14.6 16.573wxwxwxwx3wx--1018.3 994.2 0.0---wx
1999-07-11 07:00:00 19.8--- 15.2 16.975wxwxwxwxwx3wx--1018.1 994.0----wx
1999-07-11 08:00:00 20.2--- 15.1 17.073wxwxwx2wx--1018.2 994.1----wx
1999-07-11 09:00:00 19.7--- 15.4 17.076wxwxwxwx4wx--1018.6 994.5----wx
1999-07-11 10:00:00 18.1--- 15.9 16.787wxwxwxwx3wx--1019.8 995.5----wxw1
1999-07-11 11:00:00 18.2--- 16.5 17.190wxwxwxwx1wx--1019.9 995.6----wx
1999-07-11 12:00:00 18.7--- 17.1 17.791wxwxwxwx1wx--1019.7 995.4 1.7---wxw1
1999-07-11 13:00:00 20.1--- 15.8 17.477wxwxwxwx3wx--1019.3 995.2----wx
1999-07-11 14:00:00 20.6--- 18.0 18.985wxwxwxwx2wx--1018.9 994.8----wx
1999-07-11 15:00:00 21.1--- 18.4 19.384wxwxwxwx3wx--1018.8 994.8----wx
1999-07-11 16:00:00 22.0--- 18.1 19.478wxwxwxwx4wx--1018.1 994.2----wx
1999-07-11 17:00:00 21.0--- 18.6 19.486wxwxwxwx2wx--1017.8 993.8----wx
1999-07-11 18:00:00 21.0--- 18.7 19.587wxwxwxwxwx1wx--1017.9 993.9 0.0---wxw1
1999-07-11 19:00:00 20.2--- 17.9 18.787wxwxwxwxwx1wx--1018.1 994.0----wx
1999-07-11 20:00:00 19.5--- 17.7 18.389wxwxwxwx2wx--1018.5 994.3----wx
1999-07-11 21:00:00 19.0--- 17.6 18.192wxwxwxwx1wx--1018.5 994.3----wx
1999-07-11 22:00:00 17.0--- 16.2 16.595wxwxwx0wx--1018.5 994.1----wx
1999-07-11 23:00:00 16.0--- 15.2 15.595wxwxwxwx1wx--1018.6 994.1----wx

 

Źródłem pochodzenia danych jest Instytut Meteorologii i Gospodarki Wodnej – Państwowy Instytut Badawczy. Dane Instytutu Meteorologii i Gospodarki Wodnej – Państwowego Instytutu Badawczego zostały przetworzone.

Dane źródłowe można odnaleźć na stronie https://dane.imgw.pl